Roseau, MN

2:36 PM CST on February 25, 2018 (GMT -0600)
Roseau Municipal-Billberg

Weather History for KROX - November, 2012

Change the Weather History Date:

Thursday, November 1, 2012

  Actual Average Record
Temperature  
Mean Temperature 32 °F -  
Max Temperature 35 °F 45 °F 64 °F (1958)
Min Temperature 28 °F 26 °F 0 °F (1984)
Degree Days  
Heating Degree Days 34    
Moisture  
Dew Point 25 °F    
Average Humidity 77    
Maximum Humidity 81    
Minimum Humidity 69    
Precipitation  
Precipitation 0.00 in - - ()
Sea Level Pressure  
Sea Level Pressure 30.10 in    
Wind  
Wind Speed 14 mph (North)    
Max Wind Speed 20 mph    
Max Gust Speed 24 mph    
Visibility 10 miles    
Events      
Averages and records for this station are not official NWS values.
T = Trace of Precipitation, MM = Missing Value Source: NWS Daily Summary

Daily Weather History Graph

Daily Weather History Graph

Search for Another Location

Airport or City:

Trip Planner

Search our weather history database for the weather conditions in past years. The results will help you decide how hot, cold, wet, or windy it might be!

Date:

Astronomy

Nov. 01, 2012 Rise Set
Actual Time 8:10 AM CDT 6:01 PM CDT
Civil Twilight 7:37 AM CDT 6:34 PM CDT
Nautical Twilight 7:00 AM CDT 7:11 PM CDT
Astronomical Twilight 6:23 AM CDT 7:48 PM CDT
Moon 7:48 PM CDT (11/1) 10:55 AM CDT (11/1)
Length of Visible Light 10h 57m
Length of Day
9h 50m
Waning Gibbous, 93% of the Moon is Illuminated
Nov 1
Waning Gibbous
Nov 6
Last Quarter
Nov 13
New
Nov 20
First Quarter
Nov 28
Full

Hourly Weather History & Observations

Time (CDT) Temp. Windchill Dew Point Humidity Pressure Visibility Wind Dir Wind Speed Gust Speed Precip Events Conditions
12:01 AM 35.6 °F 24.8 °F 30.2 °F 81% 30.03 in 10.0 mi NW 19.6 mph - N/A   Overcast
12:21 AM 35.6 °F 27.1 °F 30.2 °F 81% 30.04 in 10.0 mi NNW 12.7 mph - N/A   Mostly Cloudy
12:41 AM 35.6 °F 27.1 °F 30.2 °F 81% 30.04 in 10.0 mi NNW 12.7 mph - N/A   Mostly Cloudy
1:01 AM 35.6 °F 25.9 °F 30.2 °F 81% 30.04 in 10.0 mi NW 16.1 mph 19.6 mph N/A   Mostly Cloudy
1:21 AM 35.6 °F 26.6 °F 28.4 °F 75% 30.04 in 10.0 mi NW 13.8 mph - N/A   Mostly Cloudy
1:41 AM 35.6 °F 28.0 °F 28.4 °F 75% 30.05 in 10.0 mi NW 10.4 mph - N/A   Mostly Cloudy
2:01 AM 35.6 °F 26.2 °F 28.4 °F 75% 30.05 in 10.0 mi NW 15.0 mph - N/A   Mostly Cloudy
2:21 AM 33.8 °F 27.0 °F 28.4 °F 81% 30.05 in 10.0 mi NW 8.1 mph - N/A   Mostly Cloudy
2:35 AM 33.8 °F 24.8 °F 28.4 °F 81% 30.06 in 10.0 mi NW 12.7 mph 20.7 mph N/A   Mostly Cloudy
2:54 AM 33.8 °F 23.5 °F 26.6 °F 75% 30.06 in 10.0 mi NNW 16.1 mph - N/A   Overcast
3:14 AM 33.8 °F 23.5 °F 26.6 °F 75% 30.06 in 10.0 mi NNW 16.1 mph - N/A   Mostly Cloudy
3:34 AM 33.8 °F 24.3 °F 26.6 °F 75% 30.06 in 10.0 mi NNW 13.8 mph - N/A   Overcast
3:54 AM 33.8 °F 24.3 °F 26.6 °F 75% 30.06 in 10.0 mi NNW 13.8 mph 17.3 mph N/A   Overcast
4:14 AM 32.0 °F 22.1 °F 26.6 °F 80% 30.06 in 10.0 mi NW 13.8 mph - N/A   Mostly Cloudy
4:34 AM 32.0 °F 22.5 °F 24.8 °F 75% 30.06 in 10.0 mi NNW 12.7 mph - N/A   Overcast
4:54 AM 32.0 °F 22.5 °F 24.8 °F 75% 30.07 in 10.0 mi NW 12.7 mph - N/A   Mostly Cloudy
5:14 AM 32.0 °F 22.5 °F 24.8 °F 75% 30.07 in 10.0 mi NNW 12.7 mph - N/A   Overcast
5:34 AM 30.2 °F 20.2 °F 24.8 °F 80% 30.08 in 10.0 mi NW 12.7 mph - N/A   Overcast
5:54 AM 30.2 °F 19.3 °F 24.8 °F 80% 30.08 in 10.0 mi NW 15.0 mph - N/A   Overcast
6:14 AM 30.2 °F 19.8 °F 24.8 °F 80% 30.09 in 10.0 mi NW 13.8 mph 17.3 mph N/A   Overcast
6:34 AM 30.2 °F 19.3 °F 23.0 °F 75% 30.09 in 10.0 mi NNW 15.0 mph 20.7 mph N/A   Overcast
7:34 AM 30.2 °F 18.9 °F 23.0 °F 75% 30.09 in 10.0 mi NW 16.1 mph 20.7 mph N/A   Overcast
7:54 AM 30.2 °F 18.1 °F 23.0 °F 75% 30.10 in 10.0 mi NNW 18.4 mph - N/A   Overcast
8:35 AM 30.2 °F 19.3 °F 23.0 °F 75% 30.10 in 10.0 mi NW 15.0 mph 19.6 mph N/A   Overcast
8:54 AM 30.2 °F 19.8 °F 23.0 °F 75% 30.10 in 10.0 mi NNW 13.8 mph - N/A   Overcast
9:14 AM 30.2 °F 18.9 °F 23.0 °F 75% 30.10 in 10.0 mi NNW 16.1 mph 19.6 mph N/A   Overcast
9:35 AM 30.2 °F 18.5 °F 21.2 °F 69% 30.10 in 10.0 mi North 17.3 mph - N/A   Overcast
9:54 AM 30.2 °F 18.1 °F 21.2 °F 69% 30.11 in 10.0 mi NNW 18.4 mph 24.2 mph N/A   Mostly Cloudy
10:14 AM 30.2 °F 18.5 °F 21.2 °F 69% 30.11 in 10.0 mi North 17.3 mph 23.0 mph N/A   Mostly Cloudy
10:35 AM 30.2 °F 18.1 °F 23.0 °F 75% 30.11 in 10.0 mi NNW 18.4 mph 23.0 mph N/A   Scattered Clouds
10:54 AM 30.2 °F 18.9 °F 23.0 °F 75% 30.11 in 10.0 mi North 16.1 mph 20.7 mph N/A   Scattered Clouds
11:14 AM 32.0 °F 20.8 °F 23.0 °F 69% 30.11 in 10.0 mi North 17.3 mph - N/A   Scattered Clouds
11:35 AM 30.2 °F 19.3 °F 23.0 °F 75% 30.12 in 10.0 mi North 15.0 mph - N/A   Clear
11:54 AM 30.2 °F 19.8 °F 23.0 °F 75% 30.12 in 10.0 mi NNW 13.8 mph - N/A   Clear
12:14 PM 30.2 °F 19.3 °F 23.0 °F 75% 30.12 in 7.0 mi North 15.0 mph - N/A   Scattered Clouds
12:34 PM 32.0 °F 22.1 °F 24.8 °F 75% 30.12 in 7.0 mi NNW 13.8 mph - N/A   Clear
12:54 PM 30.2 °F 20.8 °F 24.8 °F 80% 30.11 in 7.0 mi NNW 11.5 mph 17.3 mph N/A   Clear
1:14 PM 32.0 °F 23.0 °F 24.8 °F 75% 30.10 in 10.0 mi North 11.5 mph - N/A   Clear
1:34 PM 32.0 °F 22.5 °F 24.8 °F 75% 30.09 in 7.0 mi NNW 12.7 mph 16.1 mph N/A   Clear
1:54 PM 32.0 °F 22.1 °F 24.8 °F 75% 30.09 in 10.0 mi North 13.8 mph - N/A   Scattered Clouds
2:14 PM 32.0 °F 23.0 °F 24.8 °F 75% 30.09 in 7.0 mi North 11.5 mph - N/A   Clear
2:34 PM 32.0 °F 23.6 °F 24.8 °F 75% 30.09 in 10.0 mi North 10.4 mph 16.1 mph N/A   Clear
2:55 PM 33.8 °F 25.8 °F 24.8 °F 70% 30.09 in 10.0 mi North 10.4 mph - N/A   Clear
3:14 PM 32.0 °F 22.1 °F 24.8 °F 75% 30.09 in 10.0 mi North 13.8 mph - N/A   Clear
3:34 PM 32.0 °F 22.5 °F 24.8 °F 75% 30.10 in 10.0 mi NNE 12.7 mph 16.1 mph N/A   Clear
3:55 PM 32.0 °F 24.2 °F 24.8 °F 75% 30.11 in 10.0 mi NNE 9.2 mph - N/A   Clear
4:14 PM 32.0 °F 23.0 °F 24.8 °F 75% 30.11 in 10.0 mi NNE 11.5 mph - N/A   Scattered Clouds
4:55 PM 30.2 °F 21.9 °F 24.8 °F 80% 30.11 in 10.0 mi NNE 9.2 mph - N/A   Scattered Clouds
5:14 PM 30.2 °F 21.3 °F 24.8 °F 80% 30.11 in 10.0 mi NNE 10.4 mph - N/A   Mostly Cloudy
5:34 PM 30.2 °F 21.3 °F 24.8 °F 80% 30.12 in 10.0 mi NNE 10.4 mph - N/A   Mostly Cloudy
5:54 PM 30.2 °F 21.3 °F 23.0 °F 75% 30.12 in 10.0 mi NNE 10.4 mph - N/A   Overcast
6:14 PM 30.2 °F 20.2 °F 23.0 °F 75% 30.12 in 10.0 mi NNE 12.7 mph - N/A   Overcast
6:34 PM 30.2 °F 21.3 °F 24.8 °F 80% 30.13 in 10.0 mi NNE 10.4 mph - N/A   Mostly Cloudy
6:54 PM 28.4 °F 19.1 °F 23.0 °F 80% 30.13 in 10.0 mi NNW 10.4 mph - N/A   Mostly Cloudy
7:14 PM 28.4 °F 19.7 °F 23.0 °F 80% 30.14 in 10.0 mi North 9.2 mph - N/A   Overcast
7:34 PM 28.4 °F 19.1 °F 23.0 °F 80% 30.14 in 10.0 mi North 10.4 mph - N/A   Overcast
7:54 PM 28.4 °F 20.4 °F 23.0 °F 80% 30.14 in 10.0 mi NNE 8.1 mph - N/A   Overcast
8:14 PM 28.4 °F 18.5 °F 23.0 °F 80% 30.14 in 10.0 mi NNE 11.5 mph - N/A   Mostly Cloudy
8:34 PM 28.4 °F 19.7 °F 23.0 °F 80% 30.14 in 10.0 mi NNE 9.2 mph - N/A   Overcast
8:54 PM 28.4 °F 19.7 °F 23.0 °F 80% 30.13 in 10.0 mi NE 9.2 mph - N/A   Mostly Cloudy
9:14 PM 28.4 °F 20.4 °F 21.2 °F 74% 30.15 in 10.0 mi NNE 8.1 mph - N/A   Mostly Cloudy
9:34 PM 28.4 °F 20.4 °F 23.0 °F 80% 30.15 in 10.0 mi NE 8.1 mph - N/A   Mostly Cloudy
9:54 PM 28.4 °F 21.2 °F 23.0 °F 80% 30.15 in 10.0 mi NNE 6.9 mph - N/A   Scattered Clouds
10:14 PM 28.4 °F 19.7 °F 23.0 °F 80% 30.15 in 10.0 mi NE 9.2 mph - N/A   Scattered Clouds
10:34 PM 28.4 °F 20.4 °F 23.0 °F 80% 30.14 in 10.0 mi NE 8.1 mph - N/A   Scattered Clouds
10:54 PM 28.4 °F 19.7 °F 23.0 °F 80% 30.14 in 10.0 mi NE 9.2 mph - N/A   Scattered Clouds
11:14 PM 28.4 °F 20.4 °F 23.0 °F 80% 30.14 in 10.0 mi ENE 8.1 mph - N/A   Mostly Cloudy
11:34 PM 28.4 °F 22.2 °F 23.0 °F 80% 30.14 in 10.0 mi NNE 5.8 mph - N/A   Mostly Cloudy
11:54 PM 28.4 °F 19.7 °F 23.0 °F 80% 30.14 in 10.0 mi NE 9.2 mph - N/A   Scattered Clouds